Time;durP1;ratioP1;P1;durP2;ratioP2;P2;SDS_P1;SDS_P2;PMS_P1;PMS_P2;Temp;Humidity;BMP_temperature;BMP_pressure;BME280_temperature;BME280_humidity;BME280_pressure;Samples;Min_cycle;Max_cycle;Signal;HPM_P1;HPM_P2
2022/12/11 00:00:30;;;;;;;11.30;6.87;;;;;;;;;;5036956;28;20493;-60
2022/12/11 00:02:57;;;;;;;13.33;7.10;;;;;;;;;;5037420;28;20455;-62
2022/12/11 00:05:26;;;;;;;8.33;6.47;;;;;;;;;;5037237;28;20466;-62
2022/12/11 00:07:54;;;;;;;9.30;6.20;;;;;;;;;;5037379;28;20473;-61
2022/12/11 00:10:23;;;;;;;8.37;7.03;;;;;;;;;;5037722;28;20453;-62
2022/12/11 00:12:51;;;;;;;9.23;6.70;;;;;;;;;;5037462;28;20482;-62
2022/12/11 00:15:20;;;;;;;11.40;6.57;;;;;;;;;;5037702;28;20462;-60
2022/12/11 00:17:48;;;;;;;14.77;6.00;;;;;;;;;;5037381;28;20562;-62
2022/12/11 00:20:16;;;;;;;11.90;6.93;;;;;;;;;;5037287;28;20442;-63
2022/12/11 00:22:44;;;;;;;8.83;5.97;;;;;;;;;;5037238;28;20442;-62
2022/12/11 00:25:12;;;;;;;11.93;6.70;;;;;;;;;;5037579;28;20462;-62
2022/12/11 00:27:42;;;;;;;10.00;5.60;;;;;;;;;;5037124;28;20450;-62
2022/12/11 00:30:10;;;;;;;8.53;5.30;;;;;;;;;;5036743;28;20458;-62
2022/12/11 00:32:38;;;;;;;8.03;5.30;;;;;;;;;;5037207;28;20549;-62
2022/12/11 00:35:07;;;;;;;7.77;5.23;;;;;;;;;;5036910;28;20466;-62
2022/12/11 00:37:35;;;;;;;9.10;6.13;;;;;;;;;;5037427;28;20533;-62
2022/12/11 00:40:04;;;;;;;9.70;5.87;;;;;;;;;;5037281;28;20468;-62
2022/12/11 00:42:31;;;;;;;8.80;5.03;;;;;;;;;;5037007;28;20481;-62
2022/12/11 00:45:01;;;;;;;9.20;5.27;;;;;;;;;;5036958;28;20484;-62
2022/12/11 00:47:29;;;;;;;9.27;5.63;;;;;;;;;;5037098;28;20922;-62
2022/12/11 00:49:57;;;;;;;6.23;4.40;;;;;;;;;;5036719;28;20476;-62
2022/12/11 00:52:25;;;;;;;8.17;5.63;;;;;;;;;;5036975;28;20547;-62
2022/12/11 00:54:53;;;;;;;7.10;4.63;;;;;;;;;;5037134;28;20470;-61
2022/12/11 00:57:21;;;;;;;9.07;5.13;;;;;;;;;;5036962;28;20941;-62
2022/12/11 00:59:49;;;;;;;7.60;4.80;;;;;;;;;;5035110;28;20833;-61
2022/12/11 01:02:18;;;;;;;7.60;5.23;;;;;;;;;;5036241;28;20470;-62
2022/12/11 01:04:46;;;;;;;10.50;6.13;;;;;;;;;;5036515;28;20981;-62
2022/12/11 01:07:14;;;;;;;8.83;5.03;;;;;;;;;;5035474;28;20554;-62
2022/12/11 01:12:27;;;;;;;6.27;5.30;;;;;;;;;;5036670;28;20450;-62
2022/12/11 01:14:55;;;;;;;8.50;5.30;;;;;;;;;;5040023;28;20494;-62
2022/12/11 01:17:25;;;;;;;8.23;5.13;;;;;;;;;;5040459;28;20446;-62
2022/12/11 01:19:53;;;;;;;7.97;5.57;;;;;;;;;;5039988;28;20470;-62
2022/12/11 01:22:21;;;;;;;10.40;5.57;;;;;;;;;;5040336;28;20449;-62
2022/12/11 01:24:49;;;;;;;8.07;5.00;;;;;;;;;;5040352;28;20469;-62
2022/12/11 01:27:17;;;;;;;8.30;5.00;;;;;;;;;;5040351;28;20451;-62
2022/12/11 01:29:45;;;;;;;9.73;5.10;;;;;;;;;;5040413;28;20448;-62
2022/12/11 01:32:13;;;;;;;8.97;5.50;;;;;;;;;;5040284;28;20450;-62
2022/12/11 01:34:43;;;;;;;7.70;5.47;;;;;;;;;;5039950;28;20517;-61
2022/12/11 01:37:11;;;;;;;6.23;4.07;;;;;;;;;;5039233;28;20461;-62
2022/12/11 01:39:39;;;;;;;10.33;5.30;;;;;;;;;;5040209;28;20446;-62
2022/12/11 01:42:09;;;;;;;9.80;5.37;;;;;;;;;;5039654;28;20474;-62
2022/12/11 01:44:55;;;;;;;11.00;6.17;;;;;;;;;;5040365;28;20476;-62
2022/12/11 01:47:23;;;;;;;6.60;4.70;;;;;;;;;;5040025;28;20489;-62
2022/12/11 01:49:53;;;;;;;9.17;5.60;;;;;;;;;;5039396;28;20452;-62
2022/12/11 01:52:22;;;;;;;12.80;6.80;;;;;;;;;;5039949;28;20443;-62
2022/12/11 01:54:50;;;;;;;11.97;6.17;;;;;;;;;;5039745;28;20485;-62
2022/12/11 01:57:18;;;;;;;6.87;4.97;;;;;;;;;;5039531;28;20470;-62
2022/12/11 01:59:46;;;;;;;8.43;5.10;;;;;;;;;;5039488;28;20489;-62
2022/12/11 02:02:15;;;;;;;8.40;5.27;;;;;;;;;;5039562;28;20494;-62
2022/12/11 02:04:44;;;;;;;8.40;5.53;;;;;;;;;;5039096;28;20822;-62
2022/12/11 02:07:13;;;;;;;7.23;4.93;;;;;;;;;;5038769;28;21033;-62
2022/12/11 02:09:43;;;;;;;8.50;5.50;;;;;;;;;;5039254;28;20470;-62
2022/12/11 02:12:15;;;;;;;9.20;6.17;;;;;;;;;;5029247;28;20459;-62
2022/12/11 02:14:46;;;;;;;7.57;5.30;;;;;;;;;;5033827;28;20565;-62
2022/12/11 02:17:16;;;;;;;9.07;5.20;;;;;;;;;;5039208;28;20460;-62
2022/12/11 02:19:49;;;;;;;6.90;5.10;;;;;;;;;;5038644;28;20993;-62
2022/12/11 02:22:22;;;;;;;7.93;6.10;;;;;;;;;;5039374;28;20453;-62
2022/12/11 02:24:56;;;;;;;7.40;5.63;;;;;;;;;;5038955;28;20462;-62
2022/12/11 02:27:29;;;;;;;9.23;5.90;;;;;;;;;;5038903;28;21029;-62
2022/12/11 02:30:01;;;;;;;8.50;5.60;;;;;;;;;;5039422;28;20453;-62
2022/12/11 02:32:32;;;;;;;8.23;5.23;;;;;;;;;;5038907;28;20442;-62
2022/12/11 02:35:04;;;;;;;7.43;4.83;;;;;;;;;;5038837;28;20487;-62
2022/12/11 02:37:34;;;;;;;7.33;5.37;;;;;;;;;;5037939;28;20454;-62
2022/12/11 02:40:03;;;;;;;10.00;6.20;;;;;;;;;;5037542;28;20458;-62
2022/12/11 02:42:32;;;;;;;7.37;5.63;;;;;;;;;;5038198;28;20566;-62
2022/12/11 02:45:02;;;;;;;7.30;4.93;;;;;;;;;;5038856;28;20505;-62
2022/12/11 02:47:31;;;;;;;7.00;4.47;;;;;;;;;;5039033;28;20457;-62
2022/12/11 02:50:01;;;;;;;7.67;5.00;;;;;;;;;;5038704;28;20485;-62
2022/12/11 02:52:31;;;;;;;7.97;5.30;;;;;;;;;;5038920;28;20446;-62
2022/12/11 02:54:59;;;;;;;7.00;5.47;;;;;;;;;;5036047;28;20561;-62
2022/12/11 02:57:29;;;;;;;6.77;5.10;;;;;;;;;;5037541;28;20477;-62
2022/12/11 02:59:58;;;;;;;8.63;5.17;;;;;;;;;;5038758;28;20528;-62
2022/12/11 03:02:27;;;;;;;9.53;6.00;;;;;;;;;;5038775;28;20450;-62
2022/12/11 03:04:56;;;;;;;9.73;5.33;;;;;;;;;;5037989;28;20462;-62
2022/12/11 03:07:27;;;;;;;8.03;5.10;;;;;;;;;;5038903;28;20886;-60
2022/12/11 03:09:56;;;;;;;8.37;5.50;;;;;;;;;;5038598;28;20446;-60
2022/12/11 03:12:28;;;;;;;8.03;5.47;;;;;;;;;;5038549;28;20453;-60
2022/12/11 03:14:59;;;;;;;11.23;6.33;;;;;;;;;;5038280;28;20490;-60
2022/12/11 03:17:33;;;;;;;7.37;4.83;;;;;;;;;;5038319;28;20438;-60
2022/12/11 03:20:05;;;;;;;8.50;4.83;;;;;;;;;;5038227;28;20468;-60
2022/12/11 03:22:38;;;;;;;7.30;5.03;;;;;;;;;;5038260;28;20449;-60
2022/12/11 03:25:08;;;;;;;9.13;5.63;;;;;;;;;;5036942;28;20901;-60
2022/12/11 03:27:43;;;;;;;7.27;5.13;;;;;;;;;;5037370;28;20450;-60
2022/12/11 03:30:13;;;;;;;7.00;5.07;;;;;;;;;;5038032;28;20447;-60
2022/12/11 03:32:47;;;;;;;9.53;5.47;;;;;;;;;;5037960;28;20856;-60
2022/12/11 03:35:19;;;;;;;8.77;5.70;;;;;;;;;;5037960;28;20494;-60
2022/12/11 03:37:50;;;;;;;10.20;5.87;;;;;;;;;;5037569;28;20508;-60
2022/12/11 03:40:20;;;;;;;7.87;5.30;;;;;;;;;;5037953;28;20458;-62
2022/12/11 03:42:50;;;;;;;9.50;5.27;;;;;;;;;;5037469;28;20477;-60
2022/12/11 03:45:20;;;;;;;10.27;5.27;;;;;;;;;;5037790;28;21049;-60
2022/12/11 03:47:51;;;;;;;8.47;5.53;;;;;;;;;;5037903;28;20453;-62
2022/12/11 03:50:20;;;;;;;7.93;5.10;;;;;;;;;;5037765;28;20477;-59
2022/12/11 03:52:50;;;;;;;9.03;5.53;;;;;;;;;;5037951;28;20512;-60
2022/12/11 03:55:19;;;;;;;7.00;5.33;;;;;;;;;;5037073;28;20486;-60
2022/12/11 03:57:48;;;;;;;9.73;5.60;;;;;;;;;;5025525;28;20477;-60
2022/12/11 04:00:20;;;;;;;8.03;5.17;;;;;;;;;;5037687;28;20450;-60
2022/12/11 04:03:11;;;;;;;6.60;4.80;;;;;;;;;;5037997;28;20454;-60
2022/12/11 04:05:42;;;;;;;10.37;5.73;;;;;;;;;;5037481;28;20518;-62
2022/12/11 04:08:10;;;;;;;6.90;5.33;;;;;;;;;;5038207;28;20480;-62
2022/12/11 04:10:38;;;;;;;7.50;5.10;;;;;;;;;;5037726;28;20450;-62
2022/12/11 04:13:07;;;;;;;6.67;4.93;;;;;;;;;;5037457;28;20442;-62
2022/12/11 04:15:34;;;;;;;8.87;4.90;;;;;;;;;;5037355;28;20489;-62
2022/12/11 04:26:20;;;;;;;8.57;5.20;;;;;;;;;;5036112;28;20485;-63
2022/12/11 04:28:49;;;;;;;8.23;5.40;;;;;;;;;;5036368;28;20902;-61
2022/12/11 04:31:19;;;;;;;7.60;4.70;;;;;;;;;;5037126;28;20462;-62
2022/12/11 04:33:48;;;;;;;7.47;5.30;;;;;;;;;;5037294;28;20469;-61
2022/12/11 04:36:17;;;;;;;6.60;4.57;;;;;;;;;;5037041;28;20544;-62
2022/12/11 04:38:45;;;;;;;7.40;5.37;;;;;;;;;;5037300;28;20533;-62
2022/12/11 04:41:14;;;;;;;11.73;6.37;;;;;;;;;;5037178;28;20493;-62
2022/12/11 04:43:44;;;;;;;7.70;5.60;;;;;;;;;;5037104;28;20496;-61
2022/12/11 04:46:12;;;;;;;9.27;5.47;;;;;;;;;;5037120;28;20860;-62
2022/12/11 04:48:41;;;;;;;6.40;4.13;;;;;;;;;;5032659;28;20438;-62
2022/12/11 04:51:11;;;;;;;10.07;6.37;;;;;;;;;;5028254;28;20450;-60
2022/12/11 04:53:42;;;;;;;7.43;5.37;;;;;;;;;;5040814;28;20544;-60
2022/12/11 04:56:12;;;;;;;10.10;6.23;;;;;;;;;;5041108;28;20481;-60
2022/12/11 04:58:42;;;;;;;9.70;6.27;;;;;;;;;;5040171;28;20549;-62
2022/12/11 05:01:10;;;;;;;8.77;5.60;;;;;;;;;;5040739;28;20450;-62
2022/12/11 05:03:39;;;;;;;9.67;5.13;;;;;;;;;;5040460;28;20468;-62
2022/12/11 05:06:08;;;;;;;7.93;5.40;;;;;;;;;;5040898;28;20450;-62
2022/12/11 05:08:37;;;;;;;9.70;5.50;;;;;;;;;;5040586;28;20453;-62
2022/12/11 05:11:08;;;;;;;9.63;5.87;;;;;;;;;;5040438;28;20472;-62
2022/12/11 05:13:37;;;;;;;8.47;5.33;;;;;;;;;;5040491;28;20978;-62
2022/12/11 05:16:05;;;;;;;12.33;5.57;;;;;;;;;;5040829;28;20540;-62
2022/12/11 05:18:34;;;;;;;9.60;6.00;;;;;;;;;;5032791;28;20465;-62
2022/12/11 05:21:03;;;;;;;10.23;5.60;;;;;;;;;;5031690;28;20460;-60
2022/12/11 05:23:31;;;;;;;8.30;5.87;;;;;;;;;;5034478;28;20553;-62
2022/12/11 05:26:00;;;;;;;10.07;5.70;;;;;;;;;;5034065;28;20435;-62
2022/12/11 05:28:31;;;;;;;8.67;5.53;;;;;;;;;;5035028;28;20485;-62
2022/12/11 05:30:59;;;;;;;12.77;6.27;;;;;;;;;;5032467;28;20439;-62
2022/12/11 05:33:28;;;;;;;11.47;6.07;;;;;;;;;;5032359;28;20508;-62
2022/12/11 05:35:56;;;;;;;8.20;5.10;;;;;;;;;;5033523;28;20474;-62
2022/12/11 05:38:24;;;;;;;8.37;5.00;;;;;;;;;;5029203;28;20431;-62
2022/12/11 05:40:56;;;;;;;8.20;5.23;;;;;;;;;;5031648;28;20471;-62
2022/12/11 05:43:24;;;;;;;8.90;6.40;;;;;;;;;;5030689;28;20461;-62
2022/12/11 05:45:54;;;;;;;9.00;5.30;;;;;;;;;;5032759;28;20446;-62
2022/12/11 05:48:22;;;;;;;11.03;6.80;;;;;;;;;;5031723;28;20546;-62
2022/12/11 05:50:57;;;;;;;14.70;5.73;;;;;;;;;;5032287;28;20442;-62
2022/12/11 05:53:26;;;;;;;9.10;6.03;;;;;;;;;;5032534;28;20461;-59
2022/12/11 05:55:54;;;;;;;14.73;5.97;;;;;;;;;;5034385;28;20478;-60
2022/12/11 05:58:23;;;;;;;11.00;6.07;;;;;;;;;;5033454;28;20451;-62
2022/12/11 06:00:51;;;;;;;12.27;5.90;;;;;;;;;;5036053;28;20454;-62
2022/12/11 06:03:20;;;;;;;9.20;6.00;;;;;;;;;;5033564;28;20534;-62
2022/12/11 06:05:49;;;;;;;8.50;5.80;;;;;;;;;;5032401;28;20441;-61
2022/12/11 06:08:17;;;;;;;8.47;5.53;;;;;;;;;;5039217;28;20446;-62
2022/12/11 06:10:46;;;;;;;12.50;6.80;;;;;;;;;;5038400;28;20461;-62
2022/12/11 06:13:15;;;;;;;10.20;8.87;;;;;;;;;;5036629;28;20450;-62
2022/12/11 06:15:43;;;;;;;8.87;5.50;;;;;;;;;;5023289;28;20482;-62
2022/12/11 06:18:11;;;;;;;10.97;6.33;;;;;;;;;;5020698;28;20810;-62
2022/12/11 06:20:40;;;;;;;10.57;6.93;;;;;;;;;;5019172;28;20776;-62
2022/12/11 06:23:08;;;;;;;11.47;7.13;;;;;;;;;;5023323;28;20440;-62
2022/12/11 06:25:38;;;;;;;9.47;5.40;;;;;;;;;;5020677;28;20432;-62
2022/12/11 06:28:06;;;;;;;9.30;6.20;;;;;;;;;;5019979;28;20455;-62
2022/12/11 06:30:34;;;;;;;9.03;5.87;;;;;;;;;;5022211;28;20937;-62
2022/12/11 06:33:06;;;;;;;10.37;6.90;;;;;;;;;;5020272;28;20494;-62
2022/12/11 06:35:34;;;;;;;14.23;7.33;;;;;;;;;;5023181;28;20494;-62
2022/12/11 06:38:10;;;;;;;15.57;7.97;;;;;;;;;;5024669;28;20999;-62
2022/12/11 06:40:38;;;;;;;12.60;6.70;;;;;;;;;;5030748;28;20509;-63
2022/12/11 06:43:06;;;;;;;10.57;6.73;;;;;;;;;;5034458;28;20946;-62
2022/12/11 06:45:34;;;;;;;11.57;7.33;;;;;;;;;;5035387;28;20441;-62
2022/12/11 06:48:04;;;;;;;11.77;6.30;;;;;;;;;;5036232;28;20454;-62
2022/12/11 06:50:32;;;;;;;10.93;6.97;;;;;;;;;;5037662;28;20438;-62
2022/12/11 06:53:00;;;;;;;12.23;6.97;;;;;;;;;;5037730;28;20450;-62
2022/12/11 06:55:30;;;;;;;14.40;6.87;;;;;;;;;;5034795;28;20469;-62
2022/12/11 06:57:58;;;;;;;10.97;7.13;;;;;;;;;;5037464;28;20525;-62
2022/12/11 07:00:26;;;;;;;12.10;7.90;;;;;;;;;;5035880;28;20576;-62
2022/12/11 07:02:54;;;;;;;13.33;7.33;;;;;;;;;;5036281;28;20477;-62
2022/12/11 07:05:23;;;;;;;13.13;7.50;;;;;;;;;;5035788;28;20478;-62
2022/12/11 07:07:53;;;;;;;9.57;7.30;;;;;;;;;;5038616;28;20448;-62
2022/12/11 07:10:21;;;;;;;9.60;6.53;;;;;;;;;;5038245;28;20472;-62
2022/12/11 07:12:52;;;;;;;10.90;6.83;;;;;;;;;;5037698;28;20521;-62
2022/12/11 07:15:20;;;;;;;8.63;6.20;;;;;;;;;;5038392;28;20541;-63
2022/12/11 07:17:48;;;;;;;9.63;5.97;;;;;;;;;;5038301;28;20517;-62
2022/12/11 07:20:16;;;;;;;13.03;6.20;;;;;;;;;;5037802;28;20453;-62
2022/12/11 07:22:44;;;;;;;9.03;6.33;;;;;;;;;;5038441;28;20456;-62
2022/12/11 07:25:13;;;;;;;12.40;6.37;;;;;;;;;;5038177;28;20469;-62
2022/12/11 07:27:42;;;;;;;11.33;7.23;;;;;;;;;;5037976;28;20541;-62
2022/12/11 07:30:12;;;;;;;12.63;6.90;;;;;;;;;;5038101;28;20454;-62
2022/12/11 07:32:40;;;;;;;10.40;7.33;;;;;;;;;;5036816;28;20799;-62
2022/12/11 07:35:08;;;;;;;11.57;7.67;;;;;;;;;;5032206;28;20541;-62
2022/12/11 07:37:37;;;;;;;10.20;6.40;;;;;;;;;;5031658;28;20479;-62
2022/12/11 07:40:05;;;;;;;12.37;6.83;;;;;;;;;;5031018;28;20922;-62
2022/12/11 07:42:33;;;;;;;11.70;6.73;;;;;;;;;;5029571;28;20471;-62
2022/12/11 07:45:01;;;;;;;9.47;6.80;;;;;;;;;;5032968;28;20496;-62
2022/12/11 07:47:31;;;;;;;9.13;6.13;;;;;;;;;;5035468;28;20446;-62
2022/12/11 07:49:59;;;;;;;9.73;6.97;;;;;;;;;;5036563;28;20439;-62
2022/12/11 07:52:27;;;;;;;11.00;7.07;;;;;;;;;;5036346;28;20438;-62
2022/12/11 07:54:55;;;;;;;11.80;7.97;;;;;;;;;;5036394;28;20497;-62
2022/12/11 07:57:22;;;;;;;8.30;7.07;;;;;;;;;;5031542;28;20477;-61
2022/12/11 07:59:51;;;;;;;11.37;7.73;;;;;;;;;;5028561;28;20485;-61
2022/12/11 08:02:19;;;;;;;9.53;6.73;;;;;;;;;;5032737;28;20459;-61
2022/12/11 08:04:50;;;;;;;10.77;6.07;;;;;;;;;;5036296;28;21303;-61
2022/12/11 08:07:18;;;;;;;9.30;6.20;;;;;;;;;;5036490;28;20441;-61
2022/12/11 08:09:47;;;;;;;11.23;7.13;;;;;;;;;;5036429;28;20462;-62
2022/12/11 08:12:15;;;;;;;10.57;6.80;;;;;;;;;;5036474;28;20505;-62
2022/12/11 08:14:43;;;;;;;10.93;7.10;;;;;;;;;;5036384;28;20480;-61
2022/12/11 08:17:11;;;;;;;11.23;7.93;;;;;;;;;;5036392;28;20481;-62
2022/12/11 08:19:39;;;;;;;14.90;7.97;;;;;;;;;;5030699;28;20434;-61
2022/12/11 08:22:09;;;;;;;12.23;8.10;;;;;;;;;;5035956;28;20506;-61
2022/12/11 08:24:37;;;;;;;12.67;7.63;;;;;;;;;;5040354;28;20458;-61
2022/12/11 08:27:06;;;;;;;12.47;7.70;;;;;;;;;;5040732;28;20430;-61
2022/12/11 08:29:34;;;;;;;12.83;8.53;;;;;;;;;;5033718;28;20500;-61
2022/12/11 08:32:02;;;;;;;10.73;7.80;;;;;;;;;;5032998;28;20463;-61
2022/12/11 08:34:37;;;;;;;11.67;7.37;;;;;;;;;;5033667;28;20457;-62
2022/12/11 08:37:05;;;;;;;15.43;8.17;;;;;;;;;;5033116;28;20510;-61
2022/12/11 08:39:35;;;;;;;12.50;7.87;;;;;;;;;;5034762;28;20438;-61
2022/12/11 08:42:04;;;;;;;11.10;6.97;;;;;;;;;;5034047;28;20552;-62
2022/12/11 08:44:32;;;;;;;13.53;7.63;;;;;;;;;;5040426;28;20809;-62
2022/12/11 08:46:59;;;;;;;14.53;7.77;;;;;;;;;;5040986;28;20825;-62
2022/12/11 08:49:27;;;;;;;15.80;8.00;;;;;;;;;;5040705;28;20533;-62
2022/12/11 08:52:01;;;;;;;15.73;9.37;;;;;;;;;;5041134;28;20442;-62
2022/12/11 08:54:29;;;;;;;12.80;7.83;;;;;;;;;;5039449;28;20474;-62
2022/12/11 08:56:58;;;;;;;12.77;7.87;;;;;;;;;;5040070;28;20565;-62
2022/12/11 08:59:26;;;;;;;15.60;9.57;;;;;;;;;;5041028;28;20446;-62
2022/12/11 09:01:54;;;;;;;12.63;8.37;;;;;;;;;;5040980;28;20446;-62
2022/12/11 09:04:22;;;;;;;12.93;8.10;;;;;;;;;;5039688;28;20478;-62
2022/12/11 09:06:50;;;;;;;11.67;8.47;;;;;;;;;;5040581;28;20454;-62
2022/12/11 09:09:18;;;;;;;16.23;7.87;;;;;;;;;;5039438;28;20497;-62
2022/12/11 09:11:46;;;;;;;14.47;7.67;;;;;;;;;;5040353;28;20454;-62
2022/12/11 09:14:16;;;;;;;14.10;7.73;;;;;;;;;;5040415;28;20469;-62
2022/12/11 09:16:44;;;;;;;18.60;11.57;;;;;;;;;;5036905;28;20481;-62
2022/12/11 09:19:13;;;;;;;12.63;8.07;;;;;;;;;;5033465;28;20462;-62
2022/12/11 09:21:42;;;;;;;11.40;8.00;;;;;;;;;;5036969;28;20521;-62
2022/12/11 09:24:10;;;;;;;9.73;6.43;;;;;;;;;;5039009;28;20977;-62
2022/12/11 09:26:39;;;;;;;19.53;9.47;;;;;;;;;;5038900;28;20438;-62
2022/12/11 09:29:07;;;;;;;12.13;8.43;;;;;;;;;;5039291;28;20442;-61
2022/12/11 09:31:37;;;;;;;15.63;8.73;;;;;;;;;;5034561;28;20537;-61
2022/12/11 09:34:06;;;;;;;12.57;7.97;;;;;;;;;;5028008;28;20494;-62
2022/12/11 09:36:34;;;;;;;10.90;7.13;;;;;;;;;;5031421;28;20464;-62
2022/12/11 09:39:03;;;;;;;12.07;7.93;;;;;;;;;;5037755;28;20461;-61
2022/12/11 09:41:39;;;;;;;13.80;7.83;;;;;;;;;;5039956;28;20469;-64
2022/12/11 09:44:15;;;;;;;13.57;9.23;;;;;;;;;;5050999;28;20468;-63
2022/12/11 09:46:45;;;;;;;13.67;8.53;;;;;;;;;;5040044;28;20474;-63
2022/12/11 09:49:20;;;;;;;14.20;7.57;;;;;;;;;;5039809;28;20446;-63
2022/12/11 09:51:50;;;;;;;14.97;8.17;;;;;;;;;;5039870;28;20469;-63
2022/12/11 09:54:18;;;;;;;14.60;8.67;;;;;;;;;;5039851;28;20466;-63
2022/12/11 09:56:51;;;;;;;12.80;7.33;;;;;;;;;;5039558;28;20447;-63
2022/12/11 09:59:23;;;;;;;11.93;7.80;;;;;;;;;;5039723;28;20442;-63
2022/12/11 10:01:55;;;;;;;11.60;8.57;;;;;;;;;;5038429;28;20465;-63
2022/12/11 10:04:41;;;;;;;15.57;8.13;;;;;;;;;;5039260;28;20482;-63
2022/12/11 10:07:11;;;;;;;13.07;8.87;;;;;;;;;;5039741;28;20442;-63
2022/12/11 10:09:43;;;;;;;14.37;7.83;;;;;;;;;;5039662;28;20969;-63
2022/12/11 10:12:23;;;;;;;14.13;8.83;;;;;;;;;;5026386;28;20450;-63
2022/12/11 10:14:59;;;;;;;15.73;10.07;;;;;;;;;;5029340;28;20501;-63
2022/12/11 10:17:30;;;;;;;12.00;7.73;;;;;;;;;;5039563;28;20500;-63
2022/12/11 10:20:03;;;;;;;15.43;9.03;;;;;;;;;;5038958;28;20539;-63
2022/12/11 10:22:31;;;;;;;15.87;9.27;;;;;;;;;;5039603;28;20453;-63
2022/12/11 10:25:01;;;;;;;10.30;7.17;;;;;;;;;;5039498;28;20545;-62
2022/12/11 10:27:40;;;;;;;16.93;9.30;;;;;;;;;;5037172;28;20815;-63
2022/12/11 10:30:14;;;;;;;13.30;9.23;;;;;;;;;;5034987;28;20541;-63
2022/12/11 10:32:49;;;;;;;14.50;8.57;;;;;;;;;;5034680;28;20529;-63
2022/12/11 10:35:18;;;;;;;14.90;10.97;;;;;;;;;;5038850;28;20473;-64
2022/12/11 10:37:46;;;;;;;17.00;9.23;;;;;;;;;;5039048;28;20490;-63
2022/12/11 10:40:14;;;;;;;15.17;9.17;;;;;;;;;;5038897;28;20529;-63
2022/12/11 10:42:51;;;;;;;14.47;8.97;;;;;;;;;;5038537;28;21000;-63
2022/12/11 10:45:19;;;;;;;18.13;9.73;;;;;;;;;;5038656;28;20489;-64
2022/12/11 10:47:48;;;;;;;17.93;9.17;;;;;;;;;;5039039;28;20482;-63
2022/12/11 10:50:23;;;;;;;13.67;9.13;;;;;;;;;;5034124;28;20462;-62
2022/12/11 10:52:52;;;;;;;15.93;9.40;;;;;;;;;;5029700;28;20472;-62
2022/12/11 10:55:24;;;;;;;12.90;7.93;;;;;;;;;;5032540;28;20558;-62
2022/12/11 10:57:57;;;;;;;14.90;10.03;;;;;;;;;;5031214;28;20510;-62
2022/12/11 11:00:30;;;;;;;13.93;8.40;;;;;;;;;;5030287;28;20514;-62
2022/12/11 11:03:01;;;;;;;14.33;7.80;;;;;;;;;;5029897;28;20503;-62
2022/12/11 11:05:30;;;;;;;12.97;8.43;;;;;;;;;;5032185;28;20458;-61
2022/12/11 11:08:12;;;;;;;14.47;9.33;;;;;;;;;;5028026;28;20451;-62
2022/12/11 11:10:50;;;;;;;14.50;8.87;;;;;;;;;;5027645;28;20461;-62
2022/12/11 11:13:20;;;;;;;11.97;8.00;;;;;;;;;;5038222;28;20452;-62
2022/12/11 11:15:48;;;;;;;14.33;9.00;;;;;;;;;;5037510;28;20490;-62
2022/12/11 11:18:24;;;;;;;12.73;9.97;;;;;;;;;;5037764;28;20934;-62
2022/12/11 11:20:52;;;;;;;15.37;9.70;;;;;;;;;;5035749;28;20453;-62
2022/12/11 11:23:21;;;;;;;15.13;9.10;;;;;;;;;;5030910;28;20464;-62
2022/12/11 11:25:50;;;;;;;13.37;7.83;;;;;;;;;;5034402;28;20458;-62
2022/12/11 11:28:20;;;;;;;10.87;7.53;;;;;;;;;;5033978;28;20958;-62
2022/12/11 11:30:56;;;;;;;14.13;9.17;;;;;;;;;;5031692;28;20457;-62
2022/12/11 11:33:26;;;;;;;14.13;8.50;;;;;;;;;;5028594;28;20441;-62
2022/12/11 11:35:55;;;;;;;12.57;8.37;;;;;;;;;;5030432;28;20497;-62
2022/12/11 11:38:26;;;;;;;12.97;8.57;;;;;;;;;;5031518;28;20478;-61
2022/12/11 11:40:55;;;;;;;13.13;7.53;;;;;;;;;;5029656;28;20890;-61
2022/12/11 11:43:34;;;;;;;12.47;9.30;;;;;;;;;;5029490;28;20486;-62
2022/12/11 11:46:05;;;;;;;14.00;8.70;;;;;;;;;;5034096;28;20482;-62
2022/12/11 11:48:40;;;;;;;11.20;7.37;;;;;;;;;;5033396;28;20454;-61
2022/12/11 11:51:13;;;;;;;13.57;9.10;;;;;;;;;;5037030;28;20469;-61
2022/12/11 11:53:45;;;;;;;14.27;9.53;;;;;;;;;;5037271;28;20996;-62
2022/12/11 11:56:20;;;;;;;18.53;10.97;;;;;;;;;;5037579;28;20450;-62
2022/12/11 11:58:54;;;;;;;13.83;8.30;;;;;;;;;;5032810;28;20853;-63
2022/12/11 12:01:22;;;;;;;16.07;10.47;;;;;;;;;;5037475;28;20525;-62
2022/12/11 12:03:52;;;;;;;19.03;11.70;;;;;;;;;;5037088;28;20834;-63
2022/12/11 12:06:25;;;;;;;13.80;8.70;;;;;;;;;;5032790;28;20449;-63
2022/12/11 12:08:56;;;;;;;14.50;9.43;;;;;;;;;;5031514;28;20457;-63
2022/12/11 12:11:34;;;;;;;12.30;7.70;;;;;;;;;;5033987;28;20474;-63
2022/12/11 12:14:07;;;;;;;17.73;9.03;;;;;;;;;;5036368;28;20457;-62
2022/12/11 12:17:01;;;;;;;11.40;8.40;;;;;;;;;;5034846;28;20435;-62
2022/12/11 12:19:38;;;;;;;15.97;8.67;;;;;;;;;;5035907;28;20480;-62
2022/12/11 12:22:13;;;;;;;16.20;10.23;;;;;;;;;;5036388;28;20449;-62
2022/12/11 12:24:47;;;;;;;14.47;8.73;;;;;;;;;;5036038;28;20489;-63
2022/12/11 12:27:18;;;;;;;16.37;8.73;;;;;;;;;;5033199;28;20493;-63
2022/12/11 12:30:10;;;;;;;13.63;8.73;;;;;;;;;;5026871;28;20442;-62
2022/12/11 12:32:47;;;;;;;14.90;8.67;;;;;;;;;;5036761;28;20476;-63
2022/12/11 12:35:22;;;;;;;17.53;10.10;;;;;;;;;;5036334;28;20462;-62
2022/12/11 12:37:56;;;;;;;15.27;10.10;;;;;;;;;;5036042;28;20480;-62
2022/12/11 12:40:27;;;;;;;18.90;9.97;;;;;;;;;;5036973;28;21023;-62
2022/12/11 12:43:00;;;;;;;15.47;8.97;;;;;;;;;;5036651;28;20498;-62
2022/12/11 12:45:29;;;;;;;12.83;8.40;;;;;;;;;;5037036;28;20894;-62
2022/12/11 12:47:57;;;;;;;14.43;10.30;;;;;;;;;;5037009;28;20468;-62
2022/12/11 12:50:30;;;;;;;14.63;8.27;;;;;;;;;;5037090;28;20445;-62
2022/12/11 12:52:58;;;;;;;16.23;9.67;;;;;;;;;;5037091;28;20993;-62
2022/12/11 12:55:28;;;;;;;14.00;10.53;;;;;;;;;;5036440;28;20474;-63
2022/12/11 12:57:59;;;;;;;14.60;8.27;;;;;;;;;;5037159;28;20450;-62
2022/12/11 13:00:31;;;;;;;13.60;8.47;;;;;;;;;;5037114;28;20501;-62
2022/12/11 13:03:01;;;;;;;13.40;9.40;;;;;;;;;;5036938;28;20473;-62
2022/12/11 13:05:33;;;;;;;15.97;9.83;;;;;;;;;;5034549;28;20474;-62
2022/12/11 13:08:03;;;;;;;13.10;9.53;;;;;;;;;;5035947;28;20446;-62
2022/12/11 13:10:32;;;;;;;12.80;8.00;;;;;;;;;;5040788;28;20442;-62
2022/12/11 13:13:01;;;;;;;15.33;10.00;;;;;;;;;;5040697;28;20442;-62
2022/12/11 13:15:34;;;;;;;16.70;9.23;;;;;;;;;;5040705;28;20472;-62
2022/12/11 13:18:03;;;;;;;17.57;9.00;;;;;;;;;;5040287;28;20453;-62
2022/12/11 13:20:34;;;;;;;17.10;9.90;;;;;;;;;;5040196;28;21011;-62
2022/12/11 13:23:10;;;;;;;20.13;8.70;;;;;;;;;;5040350;28;20449;-62
2022/12/11 13:25:49;;;;;;;16.23;10.30;;;;;;;;;;5039516;28;20468;-62
2022/12/11 13:28:22;;;;;;;21.63;10.97;;;;;;;;;;5038530;28;20490;-62
2022/12/11 13:30:57;;;;;;;13.27;8.70;;;;;;;;;;5033406;28;20457;-62
2022/12/11 13:33:25;;;;;;;13.23;8.73;;;;;;;;;;5040067;28;20477;-62
2022/12/11 13:36:14;;;;;;;14.93;8.60;;;;;;;;;;5039979;28;20875;-62
2022/12/11 13:38:51;;;;;;;11.90;7.83;;;;;;;;;;5040147;28;20496;-63
2022/12/11 13:41:19;;;;;;;15.33;9.03;;;;;;;;;;5039686;28;20484;-63
2022/12/11 13:43:49;;;;;;;18.63;10.60;;;;;;;;;;5039873;28;20458;-63
2022/12/11 13:46:20;;;;;;;18.43;10.10;;;;;;;;;;5039964;28;20443;-63
2022/12/11 13:48:50;;;;;;;14.30;8.57;;;;;;;;;;5039446;28;20533;-63
2022/12/11 13:51:20;;;;;;;18.50;9.23;;;;;;;;;;5040118;28;20443;-63
2022/12/11 13:53:49;;;;;;;14.03;9.17;;;;;;;;;;5032016;28;20553;-62
2022/12/11 13:56:18;;;;;;;14.30;8.23;;;;;;;;;;5031130;28;20461;-62
2022/12/11 13:58:47;;;;;;;16.47;9.83;;;;;;;;;;5030095;28;20486;-63
2022/12/11 14:01:17;;;;;;;21.13;11.13;;;;;;;;;;5030415;28;20521;-62
2022/12/11 14:03:48;;;;;;;19.37;10.30;;;;;;;;;;5038948;28;20832;-63
2022/12/11 14:06:18;;;;;;;20.20;11.33;;;;;;;;;;5039732;28;20472;-62
2022/12/11 14:08:49;;;;;;;15.13;10.23;;;;;;;;;;5039824;28;20446;-62
2022/12/11 14:11:21;;;;;;;16.93;9.53;;;;;;;;;;5039854;28;20557;-62
2022/12/11 14:13:49;;;;;;;14.10;8.60;;;;;;;;;;5039512;28;20462;-62
2022/12/11 14:16:20;;;;;;;15.73;9.33;;;;;;;;;;5039193;28;20832;-62
2022/12/11 14:18:49;;;;;;;13.80;8.87;;;;;;;;;;5039323;28;20481;-62
2022/12/11 14:21:18;;;;;;;19.30;10.33;;;;;;;;;;5038862;28;20512;-62
2022/12/11 14:23:53;;;;;;;16.00;9.80;;;;;;;;;;5032313;28;21038;-62
2022/12/11 14:26:23;;;;;;;21.67;10.77;;;;;;;;;;5030281;28;20480;-62
2022/12/11 14:28:51;;;;;;;16.60;9.63;;;;;;;;;;5036644;28;20840;-62
2022/12/11 14:31:23;;;;;;;16.63;9.67;;;;;;;;;;5039321;28;20521;-62
2022/12/11 14:33:52;;;;;;;19.20;11.80;;;;;;;;;;5039019;28;20495;-62
2022/12/11 14:36:20;;;;;;;15.53;10.03;;;;;;;;;;5038964;28;20439;-62
2022/12/11 14:38:52;;;;;;;20.23;10.90;;;;;;;;;;5039403;28;20481;-62
2022/12/11 14:41:25;;;;;;;18.30;10.63;;;;;;;;;;5038819;28;20486;-62
2022/12/11 14:43:54;;;;;;;20.87;11.87;;;;;;;;;;5038817;28;20997;-63
2022/12/11 14:46:23;;;;;;;18.83;11.70;;;;;;;;;;5038880;28;20480;-64
2022/12/11 14:48:53;;;;;;;17.63;9.57;;;;;;;;;;5038554;28;20442;-63
2022/12/11 14:51:28;;;;;;;20.50;10.47;;;;;;;;;;5036705;28;20483;-64
2022/12/11 14:53:57;;;;;;;16.80;10.00;;;;;;;;;;5038081;28;20520;-63
2022/12/11 14:56:28;;;;;;;17.10;10.40;;;;;;;;;;5038691;28;20446;-64
2022/12/11 14:58:58;;;;;;;20.80;11.83;;;;;;;;;;5038583;28;20533;-63
2022/12/11 15:01:27;;;;;;;22.27;10.60;;;;;;;;;;5038584;28;20486;-63